createdAt,value
2023-02-17T00:00:35.861Z,2.33
2023-02-17T00:01:37.526Z,2.29
2023-02-17T00:02:40.087Z,2.34
2023-02-17T00:03:42.310Z,2.32
2023-02-17T00:04:43.900Z,2.27
2023-02-17T00:05:45.911Z,2.19
2023-02-17T00:06:47.452Z,2.11
2023-02-17T00:07:48.987Z,2.10
2023-02-17T00:08:50.582Z,2.09
2023-02-17T00:09:52.130Z,2.01
2023-02-17T00:10:58.529Z,2.06
2023-02-17T00:12:00.111Z,2.07
2023-02-17T00:13:01.691Z,2.08
2023-02-17T00:14:03.347Z,1.97
2023-02-17T00:15:05.327Z,1.97
2023-02-17T00:16:17.792Z,1.96
2023-02-17T00:17:19.361Z,1.86
2023-02-17T00:18:21.066Z,1.87
2023-02-17T00:19:25.909Z,1.90
2023-02-17T00:20:29.481Z,1.92
2023-02-17T00:21:32.334Z,1.84
2023-02-17T00:22:33.890Z,1.79
2023-02-17T00:23:35.397Z,1.79
2023-02-17T00:24:41.103Z,1.65
2023-02-17T00:25:42.716Z,1.41
2023-02-17T00:26:44.458Z,1.29
2023-02-17T00:27:46.059Z,1.24
2023-02-17T00:28:48.789Z,1.22
2023-02-17T00:29:50.326Z,1.26
2023-02-17T00:30:51.975Z,1.27
2023-02-17T00:31:54.874Z,1.27
2023-02-17T00:32:56.603Z,1.20
2023-02-17T00:33:58.141Z,1.11
2023-02-17T00:34:59.739Z,1.12
2023-02-17T00:36:11.498Z,1.12
2023-02-17T00:37:13.101Z,1.09
2023-02-17T00:38:14.631Z,1.07
2023-02-17T00:39:17.535Z,0.98
2023-02-17T00:40:19.320Z,0.93
2023-02-17T00:41:21.484Z,1.00
2023-02-17T00:42:23.049Z,1.10
2023-02-17T00:43:24.841Z,1.17
2023-02-17T00:44:26.415Z,1.23
2023-02-17T00:45:28.053Z,1.33
2023-02-17T00:46:29.656Z,1.44
2023-02-17T00:47:31.310Z,1.54
2023-02-17T00:48:32.999Z,1.64
2023-02-17T00:49:34.548Z,1.71
2023-02-17T00:50:36.115Z,1.79
2023-02-17T00:51:37.652Z,1.85
2023-02-17T00:52:39.179Z,1.95
2023-02-17T00:53:41.501Z,2.03
2023-02-17T00:54:43.078Z,2.10
2023-02-17T00:55:44.663Z,2.13
2023-02-17T00:56:46.472Z,2.17
2023-02-17T00:57:48.083Z,2.18
2023-02-17T00:58:50.789Z,2.19
2023-02-17T00:59:52.353Z,2.15
2023-02-17T01:00:56.090Z,2.18
2023-02-17T01:01:57.777Z,2.21
2023-02-17T01:02:59.376Z,2.20
2023-02-17T01:04:01.360Z,2.20
2023-02-17T01:05:03.078Z,2.23
2023-02-17T01:06:11.647Z,2.24
2023-02-17T01:07:13.208Z,2.24
2023-02-17T01:08:16.740Z,2.20
2023-02-17T01:09:18.369Z,2.21
2023-02-17T01:10:20.019Z,2.19
2023-02-17T01:11:24.255Z,2.18
2023-02-17T01:12:25.769Z,2.21
2023-02-17T01:13:27.342Z,2.25
2023-02-17T01:14:28.880Z,2.26
2023-02-17T01:15:30.491Z,2.25
2023-02-17T01:16:35.361Z,2.25
2023-02-17T01:17:36.904Z,2.24
2023-02-17T01:18:38.411Z,2.24
2023-02-17T01:19:40.171Z,2.25
2023-02-17T01:20:42.532Z,2.24
2023-02-17T01:21:44.339Z,2.21
2023-02-17T01:22:45.895Z,2.09
2023-02-17T01:23:52.150Z,1.99
2023-02-17T01:24:53.717Z,2.03
2023-02-17T01:25:55.262Z,2.07
2023-02-17T01:26:56.858Z,2.00
2023-02-17T01:27:58.407Z,1.88
2023-02-17T01:29:00.577Z,1.84
2023-02-17T01:30:02.276Z,1.79
2023-02-17T01:31:11.314Z,1.81
2023-02-17T01:32:12.906Z,1.79
2023-02-17T01:33:14.676Z,1.82
2023-02-17T01:34:16.221Z,1.88
2023-02-17T01:35:17.914Z,1.93
2023-02-17T01:36:20.540Z,1.96
2023-02-17T01:37:22.122Z,1.97
2023-02-17T01:38:23.648Z,1.95
2023-02-17T01:39:25.162Z,1.92
2023-02-17T01:40:26.738Z,1.92
2023-02-17T01:41:29.022Z,1.96
2023-02-17T01:42:30.691Z,2.03
2023-02-17T01:43:32.959Z,2.08
2023-02-17T01:44:34.528Z,2.12
2023-02-17T01:45:41.635Z,2.15
2023-02-17T01:46:46.509Z,2.18
2023-02-17T01:47:58.976Z,2.20
2023-02-17T01:49:01.658Z,2.23
2023-02-17T01:50:03.342Z,2.25
2023-02-17T01:51:14.585Z,2.23
2023-02-17T01:52:25.380Z,2.21
2023-02-17T01:53:33.519Z,2.23
2023-02-17T01:54:49.794Z,2.23
2023-02-17T01:55:52.722Z,2.27
2023-02-17T01:56:57.684Z,2.29
2023-02-17T01:58:02.132Z,2.31
2023-02-17T01:59:10.439Z,2.31
2023-02-17T02:00:14.219Z,2.32
2023-02-17T02:01:17.109Z,2.34
2023-02-17T02:02:18.937Z,2.36
2023-02-17T02:03:21.108Z,2.37
2023-02-17T02:04:26.160Z,2.17
2023-02-17T02:05:28.384Z,2.12
2023-02-17T02:06:33.971Z,2.03
2023-02-17T02:07:39.055Z,2.00
2023-02-17T02:09:12.706Z,1.77
2023-02-17T02:10:16.164Z,1.43
2023-02-17T02:11:17.747Z,1.31
2023-02-17T02:12:28.959Z,1.17
2023-02-17T02:13:30.537Z,1.03
2023-02-17T02:14:32.213Z,1.01
2023-02-17T02:16:14.596Z,1.03
2023-02-17T02:17:40.236Z,1.02
2023-02-17T02:19:15.356Z,0.84
2023-02-17T02:20:33.251Z,0.62
2023-02-17T02:22:02.009Z,0.72
2023-02-17T02:23:18.740Z,0.73
2023-02-17T02:24:38.890Z,0.79
2023-02-17T02:26:14.946Z,0.80
2023-02-17T02:27:40.150Z,0.82
2023-02-17T02:29:12.794Z,0.89
2023-02-17T02:30:40.408Z,0.97
2023-02-17T02:32:09.042Z,1.04
2023-02-17T02:33:34.370Z,1.06
2023-02-17T02:34:46.107Z,1.07
2023-02-17T02:35:59.978Z,1.11
2023-02-17T02:37:11.041Z,1.16
2023-02-17T02:38:40.731Z,1.20
2023-02-17T02:39:47.574Z,1.22
2023-02-17T02:40:55.482Z,1.22
2023-02-17T02:42:02.100Z,1.21
2023-02-17T02:43:05.190Z,1.19
2023-02-17T02:44:08.955Z,1.10
2023-02-17T02:45:11.773Z,1.09
2023-02-17T02:46:13.331Z,1.06
2023-02-17T02:47:48.828Z,0.90
2023-02-17T02:48:51.241Z,0.62
2023-02-17T02:49:53.210Z,0.40
2023-02-17T02:50:57.371Z,-0.07
2023-02-17T02:52:10.462Z,-0.33
2023-02-17T02:53:45.119Z,-0.43
2023-02-17T02:55:06.894Z,-0.65
2023-02-17T02:56:32.903Z,-0.71
2023-02-17T02:57:55.291Z,-0.75
2023-02-17T02:58:56.753Z,-0.64
2023-02-17T03:00:12.046Z,-0.52
2023-02-17T03:01:20.260Z,-0.44
2023-02-17T03:02:44.573Z,-0.32
2023-02-17T03:04:10.742Z,-0.26
2023-02-17T03:05:32.499Z,-0.16
2023-02-17T03:06:44.430Z,-0.07
2023-02-17T03:07:59.025Z,-0.10
2023-02-17T03:09:14.632Z,-0.32
2023-02-17T03:10:16.550Z,-0.65
2023-02-17T03:11:32.404Z,-0.69
2023-02-17T03:12:37.113Z,-0.81
2023-02-17T03:13:41.026Z,-1.00
2023-02-17T03:14:43.593Z,-0.99
2023-02-17T03:15:45.513Z,-0.98
2023-02-17T03:16:48.668Z,-0.92
2023-02-17T03:17:50.271Z,-0.90
2023-02-17T03:18:51.832Z,-0.85
2023-02-17T03:19:53.419Z,-0.79
2023-02-17T03:20:57.471Z,-0.73
2023-02-17T03:22:21.256Z,-0.67
2023-02-17T03:23:22.901Z,-0.62
2023-02-17T03:24:24.939Z,-0.65
2023-02-17T03:25:26.608Z,-0.73
2023-02-17T03:26:28.147Z,-0.72
2023-02-17T03:27:29.854Z,-0.72
2023-02-17T03:28:31.517Z,-0.73
2023-02-17T03:29:33.080Z,-0.80
2023-02-17T03:30:35.255Z,-0.85
2023-02-17T03:31:37.178Z,-0.94
2023-02-17T03:32:38.752Z,-0.97
2023-02-17T03:33:40.313Z,-1.04
2023-02-17T03:34:41.856Z,-1.08
2023-02-17T03:35:43.422Z,-1.09
2023-02-17T03:36:44.924Z,-1.08
2023-02-17T03:37:46.532Z,-1.02
2023-02-17T03:38:48.169Z,-1.02
2023-02-17T03:39:49.744Z,-0.98
2023-02-17T03:40:53.178Z,-0.95
2023-02-17T03:41:54.761Z,-0.92
2023-02-17T03:42:57.763Z,-0.94
2023-02-17T03:43:59.314Z,-0.91
2023-02-17T03:45:00.838Z,-0.88
2023-02-17T03:46:02.575Z,-0.85
2023-02-17T03:47:04.266Z,-0.87
2023-02-17T03:48:06.001Z,-0.83
2023-02-17T03:49:07.600Z,-0.73
2023-02-17T03:50:09.460Z,-0.61
2023-02-17T03:51:13.515Z,-0.56
2023-02-17T03:52:15.130Z,-0.49
2023-02-17T03:53:16.715Z,-0.42
2023-02-17T03:54:18.241Z,-0.33
2023-02-17T03:55:19.835Z,-0.27
2023-02-17T03:56:21.387Z,-0.26
2023-02-17T03:57:22.948Z,-0.23
2023-02-17T03:58:24.478Z,-0.15
2023-02-17T03:59:26.270Z,-0.14
2023-02-17T04:00:27.894Z,-0.09
2023-02-17T04:01:29.853Z,-0.01
2023-02-17T04:02:31.397Z,0.05
2023-02-17T04:03:33.656Z,0.08
2023-02-17T04:04:36.334Z,0.11
2023-02-17T04:05:37.953Z,0.11
2023-02-17T04:06:39.546Z,0.10
2023-02-17T04:07:41.213Z,0.17
2023-02-17T04:08:42.827Z,0.17
2023-02-17T04:09:44.547Z,0.13
2023-02-17T04:10:46.174Z,0.14
2023-02-17T04:11:47.707Z,0.15
2023-02-17T04:12:49.233Z,0.19
2023-02-17T04:13:50.856Z,0.12
2023-02-17T04:14:52.402Z,0.03
2023-02-17T04:15:54.399Z,-0.08
2023-02-17T04:16:55.992Z,-0.13
2023-02-17T04:17:57.655Z,-0.22
2023-02-17T04:18:59.219Z,-0.25
2023-02-17T04:20:00.768Z,-0.32
2023-02-17T04:21:03.062Z,-0.26
2023-02-17T04:22:08.782Z,-0.17
2023-02-17T04:23:11.535Z,-0.07
2023-02-17T04:24:13.189Z,0.04
2023-02-17T04:25:14.762Z,0.12
2023-02-17T04:26:16.320Z,0.16
2023-02-17T04:27:17.869Z,0.27
2023-02-17T04:28:19.465Z,0.34
2023-02-17T04:29:21.022Z,0.39
2023-02-17T04:30:22.624Z,0.43
2023-02-17T04:31:25.944Z,0.49
2023-02-17T04:32:27.598Z,0.56
2023-02-17T04:33:29.755Z,0.61
2023-02-17T04:34:31.359Z,0.65
2023-02-17T04:35:32.916Z,0.67
2023-02-17T04:36:34.483Z,0.71
2023-02-17T04:37:36.116Z,0.73
2023-02-17T04:38:38.430Z,0.75
2023-02-17T04:39:39.949Z,0.75
2023-02-17T04:40:42.511Z,0.72
2023-02-17T04:41:44.117Z,0.72
2023-02-17T04:42:46.498Z,0.73
2023-02-17T04:43:48.091Z,0.75
2023-02-17T04:44:49.850Z,0.77
2023-02-17T04:45:52.171Z,0.81
2023-02-17T04:46:53.706Z,0.82
2023-02-17T04:47:55.248Z,0.83
2023-02-17T04:48:56.786Z,0.79
2023-02-17T04:49:58.536Z,0.78
2023-02-17T04:51:00.104Z,0.79
2023-02-17T04:52:01.746Z,0.82
2023-02-17T04:53:03.359Z,0.74
2023-02-17T04:54:04.913Z,0.64
2023-02-17T04:55:07.250Z,0.54
2023-02-17T04:56:08.884Z,0.57
2023-02-17T04:57:10.482Z,0.57
2023-02-17T04:58:12.028Z,0.52
2023-02-17T04:59:13.582Z,0.52
2023-02-17T05:00:15.382Z,0.47
2023-02-17T05:01:16.964Z,0.37
2023-02-17T05:02:18.803Z,0.24
2023-02-17T05:03:20.726Z,0.14
2023-02-17T05:04:22.309Z,0.06
2023-02-17T05:05:24.038Z,0.00
2023-02-17T05:06:25.592Z,-0.12
2023-02-17T05:07:27.248Z,-0.06
2023-02-17T05:08:28.790Z,0.04
2023-02-17T05:09:30.336Z,0.11
2023-02-17T05:10:32.086Z,0.11
2023-02-17T05:11:33.749Z,0.09
2023-02-17T05:12:35.554Z,0.02
2023-02-17T05:13:37.123Z,-0.09
2023-02-17T05:14:39.535Z,-0.10
2023-02-17T05:15:44.107Z,-0.26
2023-02-17T05:16:45.771Z,-0.33
2023-02-17T05:17:47.351Z,-0.31
2023-02-17T05:18:48.931Z,-0.28
2023-02-17T05:19:50.482Z,-0.26
2023-02-17T05:20:52.220Z,-0.21
2023-02-17T05:21:53.803Z,-0.21
2023-02-17T05:22:55.341Z,-0.24
2023-02-17T05:23:56.920Z,-0.38
2023-02-17T05:24:58.696Z,-0.48
2023-02-17T05:26:00.269Z,-0.48
2023-02-17T05:27:01.800Z,-0.40
2023-02-17T05:28:03.473Z,-0.33
2023-02-17T05:29:04.987Z,-0.22
2023-02-17T05:30:07.217Z,-0.19
2023-02-17T05:31:08.919Z,-0.17
2023-02-17T05:32:10.646Z,-0.11
2023-02-17T05:33:12.300Z,-0.14
2023-02-17T05:34:13.888Z,-0.17
2023-02-17T05:35:15.574Z,-0.23
2023-02-17T05:36:17.286Z,-0.29
2023-02-17T05:37:19.540Z,-0.31
2023-02-17T05:38:21.489Z,-0.26
2023-02-17T05:39:23.431Z,-0.22
2023-02-17T05:40:25.006Z,-0.17
2023-02-17T05:41:26.519Z,-0.10
2023-02-17T05:42:28.993Z,-0.06
2023-02-17T05:43:30.988Z,-0.06
2023-02-17T05:44:36.233Z,-0.03
2023-02-17T05:45:37.916Z,0.01
2023-02-17T05:46:39.764Z,0.06
2023-02-17T05:47:41.562Z,0.08
2023-02-17T05:48:44.547Z,0.07
2023-02-17T05:49:46.652Z,0.09
2023-02-17T05:50:52.869Z,0.09
2023-02-17T05:51:58.886Z,0.14
2023-02-17T05:53:00.617Z,0.23
2023-02-17T05:54:02.575Z,0.27
2023-02-17T05:55:05.415Z,0.34
2023-02-17T05:56:13.659Z,0.39
2023-02-17T05:57:16.016Z,0.33
2023-02-17T05:58:24.075Z,0.32
2023-02-17T05:59:26.203Z,0.40
2023-02-17T06:00:31.918Z,0.45
2023-02-17T06:01:41.788Z,0.42
2023-02-17T06:03:00.598Z,0.19
2023-02-17T06:04:08.236Z,-0.03
2023-02-17T06:05:15.467Z,-0.07
2023-02-17T06:06:17.939Z,0.02
2023-02-17T06:07:20.413Z,0.09
2023-02-17T06:08:26.490Z,0.16
2023-02-17T06:09:34.110Z,0.24
2023-02-17T06:10:39.287Z,0.36
2023-02-17T06:11:49.737Z,0.46
2023-02-17T06:12:52.207Z,0.53
2023-02-17T06:13:54.464Z,0.60
2023-02-17T06:14:56.975Z,0.66
2023-02-17T06:16:02.439Z,0.68
2023-02-17T06:17:07.251Z,0.67
2023-02-17T06:18:12.074Z,0.72
2023-02-17T06:19:14.317Z,0.75
2023-02-17T06:20:16.609Z,0.74
2023-02-17T06:21:18.363Z,0.75
2023-02-17T06:22:20.380Z,0.79
2023-02-17T06:23:22.197Z,0.82
2023-02-17T06:24:27.079Z,0.86
2023-02-17T06:25:32.400Z,0.92
2023-02-17T06:26:34.484Z,0.97
2023-02-17T06:27:38.610Z,0.99
2023-02-17T06:28:41.537Z,1.03
2023-02-17T06:29:51.889Z,1.07
2023-02-17T06:30:59.756Z,1.08
2023-02-17T06:32:11.137Z,1.08
2023-02-17T06:33:13.844Z,1.06
2023-02-17T06:34:18.774Z,1.07
2023-02-17T06:35:23.799Z,1.15
2023-02-17T06:36:26.174Z,1.20
2023-02-17T06:37:28.736Z,1.29
2023-02-17T06:38:37.166Z,1.36
2023-02-17T06:39:45.435Z,1.21
2023-02-17T06:40:47.425Z,1.09
2023-02-17T06:41:49.293Z,1.10
2023-02-17T06:42:51.026Z,1.23
2023-02-17T06:43:58.664Z,1.35
2023-02-17T06:45:08.959Z,1.49
2023-02-17T06:46:11.519Z,1.63
2023-02-17T06:47:13.152Z,1.71
2023-02-17T06:48:15.462Z,1.79
2023-02-17T06:49:20.814Z,1.90
2023-02-17T06:50:23.132Z,1.96
2023-02-17T06:51:25.508Z,2.06
2023-02-17T06:52:28.675Z,2.15
2023-02-17T06:53:30.729Z,2.22
2023-02-17T06:54:35.636Z,2.29
2023-02-17T06:55:39.530Z,2.32
2023-02-17T06:56:41.623Z,2.43
2023-02-17T06:57:43.977Z,2.55
2023-02-17T06:58:57.089Z,2.60
2023-02-17T07:00:02.929Z,2.61
2023-02-17T07:01:05.900Z,2.64
2023-02-17T07:02:13.578Z,2.67
2023-02-17T07:03:16.554Z,2.78
2023-02-17T07:04:18.809Z,2.83
2023-02-17T07:05:20.651Z,2.89
2023-02-17T07:06:24.880Z,2.98
2023-02-17T07:07:27.194Z,3.00
2023-02-17T07:08:32.444Z,2.98
2023-02-17T07:09:35.702Z,3.04
2023-02-17T07:10:38.203Z,3.14
2023-02-17T07:11:42.072Z,3.31
2023-02-17T07:12:44.134Z,3.44
2023-02-17T07:13:49.930Z,3.56
2023-02-17T07:14:53.028Z,3.60
2023-02-17T07:15:56.352Z,3.33
2023-02-17T07:16:58.174Z,3.24
2023-02-17T07:18:01.806Z,3.29
2023-02-17T07:19:04.258Z,3.32
2023-02-17T07:20:10.230Z,3.19
2023-02-17T07:21:12.667Z,3.20
2023-02-17T07:22:17.428Z,3.21
2023-02-17T07:23:25.525Z,3.10
2023-02-17T07:24:27.574Z,3.19
2023-02-17T07:25:29.749Z,3.36
2023-02-17T07:26:31.779Z,3.46
2023-02-17T07:27:35.876Z,3.55
2023-02-17T07:28:39.494Z,3.54
2023-02-17T07:29:44.487Z,3.62
2023-02-17T07:30:46.848Z,3.57
2023-02-17T07:31:52.084Z,3.56
2023-02-17T07:32:56.809Z,3.49
2023-02-17T07:33:58.528Z,3.44
2023-02-17T07:35:00.203Z,3.40
2023-02-17T07:36:09.751Z,3.35
2023-02-17T07:37:11.320Z,3.35
2023-02-17T07:38:13.083Z,3.34
2023-02-17T07:39:14.813Z,3.30
2023-02-17T07:40:16.394Z,3.28
2023-02-17T07:41:20.831Z,3.22
2023-02-17T07:42:22.544Z,3.12
2023-02-17T07:43:24.049Z,3.07
2023-02-17T07:44:25.584Z,2.96
2023-02-17T07:45:27.322Z,2.89
2023-02-17T07:46:28.895Z,2.90
2023-02-17T07:47:32.584Z,2.94
2023-02-17T07:48:34.533Z,2.95
2023-02-17T07:49:36.157Z,2.99
2023-02-17T07:50:37.785Z,3.09
2023-02-17T07:51:39.330Z,3.18
2023-02-17T07:52:40.867Z,3.19
2023-02-17T07:53:42.477Z,3.22
2023-02-17T07:54:44.258Z,3.34
2023-02-17T07:55:45.809Z,3.48
2023-02-17T07:56:47.443Z,3.61
2023-02-17T07:57:48.989Z,3.75
2023-02-17T07:58:50.588Z,3.81
2023-02-17T07:59:52.302Z,3.92
2023-02-17T08:00:53.826Z,4.02
2023-02-17T08:01:55.396Z,3.99
2023-02-17T08:02:56.959Z,4.03
2023-02-17T08:03:58.659Z,4.12
2023-02-17T08:05:00.196Z,4.21
2023-02-17T08:06:02.444Z,4.35
2023-02-17T08:07:04.002Z,4.45
2023-02-17T08:08:24.128Z,4.58
2023-02-17T08:09:44.028Z,4.58
2023-02-17T08:11:04.076Z,4.33
2023-02-17T08:12:24.459Z,4.38
2023-02-17T08:13:28.047Z,4.53
2023-02-17T08:14:30.682Z,4.56
2023-02-17T08:15:33.913Z,4.58
2023-02-17T08:16:35.594Z,4.77
2023-02-17T08:17:37.674Z,4.84
2023-02-17T08:18:39.233Z,5.01
2023-02-17T08:19:48.411Z,5.15
2023-02-17T08:20:50.500Z,5.27
2023-02-17T08:21:53.414Z,5.41
2023-02-17T08:22:54.960Z,5.36
2023-02-17T08:23:56.582Z,5.07
2023-02-17T08:24:58.162Z,4.79
2023-02-17T08:25:59.743Z,4.60
2023-02-17T08:27:01.352Z,4.47
2023-02-17T08:28:05.804Z,4.16
2023-02-17T08:29:07.647Z,4.03
2023-02-17T08:30:09.843Z,4.01
2023-02-17T08:31:18.093Z,3.81
2023-02-17T08:32:19.848Z,3.78
2023-02-17T08:33:21.480Z,3.80
2023-02-17T08:34:23.040Z,3.92
2023-02-17T08:35:25.854Z,4.01
2023-02-17T08:36:28.926Z,3.98
2023-02-17T08:37:31.878Z,4.20
2023-02-17T08:38:34.448Z,4.42
2023-02-17T08:39:37.107Z,4.55
2023-02-17T08:40:38.979Z,4.60
2023-02-17T08:41:43.935Z,4.59
2023-02-17T08:42:45.524Z,4.60
2023-02-17T08:43:47.629Z,4.64
2023-02-17T08:44:49.182Z,4.62
2023-02-17T08:45:50.833Z,4.56
2023-02-17T08:46:52.917Z,4.54
2023-02-17T08:47:54.614Z,4.72
2023-02-17T08:48:57.041Z,4.96
2023-02-17T08:49:58.577Z,5.15
2023-02-17T08:51:00.158Z,5.12
2023-02-17T08:52:02.474Z,4.97
2023-02-17T08:53:04.172Z,4.88
2023-02-17T08:54:07.101Z,4.77
2023-02-17T08:55:08.674Z,4.82
2023-02-17T08:56:10.296Z,4.83
2023-02-17T08:57:12.049Z,5.00
2023-02-17T08:58:13.709Z,5.08
2023-02-17T08:59:15.486Z,5.06
2023-02-17T09:00:17.914Z,5.19
2023-02-17T09:01:20.383Z,5.40
2023-02-17T09:02:22.027Z,5.45
2023-02-17T09:03:23.748Z,5.41
2023-02-17T09:04:25.655Z,5.40
2023-02-17T09:05:27.335Z,5.42
2023-02-17T09:06:33.621Z,5.42
2023-02-17T09:07:35.185Z,5.36
2023-02-17T09:08:39.177Z,5.29
2023-02-17T09:09:41.373Z,5.31
2023-02-17T09:10:43.095Z,5.46
2023-02-17T09:11:45.155Z,5.59
2023-02-17T09:12:46.740Z,5.48
2023-02-17T09:13:48.339Z,5.47
2023-02-17T09:14:49.928Z,5.59
2023-02-17T09:15:54.006Z,5.72
2023-02-17T09:16:56.824Z,5.80
2023-02-17T09:17:58.615Z,5.93
2023-02-17T09:19:00.332Z,6.04
2023-02-17T09:20:01.917Z,5.92
2023-02-17T09:21:12.100Z,5.75
2023-02-17T09:22:30.562Z,5.85
2023-02-17T09:23:33.027Z,5.62
2023-02-17T09:24:38.737Z,5.50
2023-02-17T09:25:40.386Z,5.30
2023-02-17T09:26:42.036Z,5.18
2023-02-17T09:27:43.609Z,5.16
2023-02-17T09:28:45.955Z,5.18
2023-02-17T09:29:47.489Z,5.18
2023-02-17T09:30:49.241Z,5.20
2023-02-17T09:31:51.034Z,5.38
2023-02-17T09:32:52.754Z,5.50
2023-02-17T09:33:55.273Z,5.57
2023-02-17T09:34:58.767Z,5.55
2023-02-17T09:36:00.931Z,5.65
2023-02-17T09:37:02.594Z,5.85
2023-02-17T09:38:04.237Z,6.05
2023-02-17T09:39:06.020Z,6.17
2023-02-17T09:40:09.076Z,6.23
2023-02-17T09:41:18.572Z,6.22
2023-02-17T09:42:23.109Z,6.13
2023-02-17T09:43:31.200Z,6.05
2023-02-17T09:44:41.063Z,6.24
2023-02-17T09:45:47.708Z,6.38
2023-02-17T09:47:01.810Z,6.46
2023-02-17T09:48:08.695Z,6.61
2023-02-17T09:49:20.981Z,6.45
2023-02-17T09:50:29.829Z,6.49
2023-02-17T09:52:04.945Z,6.73
2023-02-17T09:53:09.305Z,6.41
2023-02-17T09:54:18.238Z,6.33
2023-02-17T09:55:25.082Z,6.32
2023-02-17T09:56:34.035Z,6.38
2023-02-17T09:57:59.681Z,6.33
2023-02-17T09:59:08.359Z,6.37
2023-02-17T10:00:16.072Z,6.51
2023-02-17T10:01:24.092Z,6.63
2023-02-17T10:02:36.610Z,6.66
2023-02-17T10:03:54.908Z,6.73
2023-02-17T10:05:03.142Z,6.89
2023-02-17T10:06:18.605Z,7.12
2023-02-17T10:07:39.964Z,7.24
2023-02-17T10:09:05.494Z,7.39
2023-02-17T10:10:46.945Z,7.50
2023-02-17T10:11:59.615Z,7.44
2023-02-17T10:13:03.215Z,7.51
2023-02-17T10:14:15.013Z,7.59
2023-02-17T10:15:22.195Z,7.74
2023-02-17T10:16:31.068Z,7.87
2023-02-17T10:18:10.809Z,7.81
2023-02-17T10:19:19.095Z,7.68
2023-02-17T10:20:28.766Z,7.80
2023-02-17T10:21:40.688Z,7.96
2023-02-17T10:23:17.550Z,8.07
2023-02-17T10:24:19.131Z,8.12
2023-02-17T10:25:34.248Z,8.28
2023-02-17T10:27:08.296Z,8.37
2023-02-17T10:28:17.482Z,8.45
2023-02-17T10:29:37.162Z,8.57
2023-02-17T10:30:48.662Z,8.57
2023-02-17T10:32:20.141Z,8.54
2023-02-17T10:33:29.370Z,8.45
2023-02-17T10:34:51.151Z,8.53
2023-02-17T10:36:12.157Z,8.71
2023-02-17T10:37:54.887Z,8.88
2023-02-17T10:39:03.617Z,8.99
2023-02-17T10:40:14.691Z,9.01
2023-02-17T10:41:22.695Z,9.04
2023-02-17T10:42:30.714Z,9.03
2023-02-17T10:43:33.621Z,9.07
2023-02-17T10:44:37.798Z,9.11
2023-02-17T10:45:49.555Z,9.12
2023-02-17T10:46:53.925Z,9.15
2023-02-17T10:48:09.325Z,9.13
2023-02-17T10:49:39.590Z,9.10
2023-02-17T10:50:46.601Z,9.07
2023-02-17T10:51:48.131Z,9.12
2023-02-17T10:52:50.862Z,9.25
2023-02-17T10:54:03.297Z,9.40
2023-02-17T10:55:36.834Z,9.52
2023-02-17T10:56:49.320Z,9.65
2023-02-17T10:57:58.042Z,9.72
2023-02-17T10:59:13.222Z,9.66
2023-02-17T11:00:19.529Z,9.59
2023-02-17T11:01:23.304Z,9.54
2023-02-17T11:02:41.871Z,9.63
2023-02-17T11:03:43.866Z,9.72
2023-02-17T11:04:50.975Z,9.79
2023-02-17T11:06:01.981Z,9.89
2023-02-17T11:07:10.361Z,9.93
2023-02-17T11:08:33.657Z,9.93
2023-02-17T11:09:36.302Z,9.98
2023-02-17T11:10:40.937Z,10.05
2023-02-17T11:11:54.361Z,10.10
2023-02-17T11:12:58.644Z,10.01
2023-02-17T11:14:06.341Z,10.04
2023-02-17T11:15:20.508Z,10.07
2023-02-17T11:17:12.622Z,10.00
2023-02-17T11:18:25.029Z,10.08
2023-02-17T11:19:31.000Z,10.16
2023-02-17T11:20:34.770Z,10.21
2023-02-17T11:21:43.449Z,10.30
2023-02-17T11:22:47.943Z,10.31
2023-02-17T11:23:59.704Z,10.26
2023-02-17T11:25:26.775Z,10.36
2023-02-17T11:26:32.287Z,10.45
2023-02-17T11:27:34.023Z,10.53
2023-02-17T11:28:35.747Z,10.54
2023-02-17T11:29:37.907Z,10.58
2023-02-17T11:30:48.661Z,10.51
2023-02-17T11:32:00.796Z,10.55
2023-02-17T11:33:13.998Z,10.64
2023-02-17T11:34:22.711Z,10.72
2023-02-17T11:35:28.301Z,10.82
2023-02-17T11:36:30.988Z,10.81
2023-02-17T11:37:33.866Z,10.77
2023-02-17T11:38:38.519Z,10.79
2023-02-17T11:39:43.476Z,10.79
2023-02-17T11:40:57.953Z,10.86
2023-02-17T11:41:59.568Z,10.88
2023-02-17T11:43:02.812Z,10.95
2023-02-17T11:44:04.443Z,10.98
2023-02-17T11:45:22.207Z,11.02
2023-02-17T11:46:55.533Z,11.13
2023-02-17T11:48:33.745Z,11.25
2023-02-17T11:49:35.300Z,11.29
2023-02-17T11:50:45.810Z,11.31
2023-02-17T11:51:47.298Z,11.35
2023-02-17T11:53:26.349Z,11.29
2023-02-17T11:55:06.591Z,11.21
2023-02-17T11:56:08.489Z,11.17
2023-02-17T11:57:40.731Z,11.24
2023-02-17T11:59:20.406Z,11.35
2023-02-17T12:00:42.905Z,11.31
2023-02-17T12:02:06.962Z,11.36
2023-02-17T12:03:42.475Z,11.46
2023-02-17T12:04:50.152Z,11.48
2023-02-17T12:06:04.562Z,11.50
2023-02-17T12:07:06.640Z,11.58
2023-02-17T12:08:11.149Z,11.67
2023-02-17T12:09:27.422Z,11.77
2023-02-17T12:10:41.697Z,11.77
2023-02-17T12:12:01.889Z,11.76
2023-02-17T12:13:12.059Z,11.78
2023-02-17T12:14:41.696Z,11.85
2023-02-17T12:15:49.004Z,11.87
2023-02-17T12:16:57.872Z,11.87
2023-02-17T12:18:08.152Z,11.83
2023-02-17T12:19:40.302Z,11.78
2023-02-17T12:21:04.781Z,11.78
2023-02-17T12:22:15.274Z,11.84
2023-02-17T12:23:19.599Z,11.90
2023-02-17T12:24:24.210Z,11.93
2023-02-17T12:25:28.967Z,11.93
2023-02-17T12:26:45.005Z,11.93
2023-02-17T12:28:12.428Z,11.99
2023-02-17T12:29:28.939Z,12.05
2023-02-17T12:31:02.722Z,12.04
2023-02-17T12:32:20.773Z,12.08
2023-02-17T12:33:32.375Z,12.10
2023-02-17T12:34:42.039Z,12.11
2023-02-17T12:35:55.893Z,12.13
2023-02-17T12:36:59.289Z,12.09
2023-02-17T12:38:11.256Z,12.11
2023-02-17T12:39:24.726Z,12.20
2023-02-17T12:40:29.206Z,12.22
2023-02-17T12:41:36.814Z,12.21
2023-02-17T12:42:49.386Z,12.22
2023-02-17T12:43:55.037Z,12.27
2023-02-17T12:45:05.668Z,12.33
2023-02-17T12:46:11.937Z,12.37
2023-02-17T12:47:18.833Z,12.41
2023-02-17T12:48:41.580Z,12.46
2023-02-17T12:49:59.335Z,12.45
2023-02-17T12:51:12.482Z,12.39
2023-02-17T12:52:19.856Z,12.44
2023-02-17T12:53:34.293Z,12.57
2023-02-17T12:54:42.268Z,12.63
2023-02-17T12:55:50.269Z,12.72
2023-02-17T12:57:10.071Z,12.77
2023-02-17T12:58:25.494Z,12.84
2023-02-17T12:59:33.333Z,12.87
2023-02-17T13:00:48.696Z,12.90
2023-02-17T13:01:59.086Z,12.91
2023-02-17T13:03:03.014Z,12.90
2023-02-17T13:04:05.154Z,12.90
2023-02-17T13:05:20.917Z,12.89
2023-02-17T13:06:32.682Z,12.87
2023-02-17T13:07:59.216Z,12.91
2023-02-17T13:09:15.436Z,13.00
2023-02-17T13:10:31.786Z,13.07
2023-02-17T13:11:35.640Z,13.08
2023-02-17T13:12:40.856Z,13.14
2023-02-17T13:13:42.437Z,13.14
2023-02-17T13:14:47.219Z,13.12
2023-02-17T13:15:48.966Z,13.10
2023-02-17T13:16:50.646Z,13.16
2023-02-17T13:18:03.075Z,13.18
2023-02-17T13:19:08.556Z,13.20
2023-02-17T13:20:10.041Z,13.24
2023-02-17T13:21:31.786Z,13.31
2023-02-17T13:22:34.019Z,13.39
2023-02-17T13:23:39.507Z,13.41
2023-02-17T13:24:53.070Z,13.39
2023-02-17T13:26:28.375Z,13.35
2023-02-17T13:27:32.747Z,13.32
2023-02-17T13:28:38.107Z,13.32
2023-02-17T13:29:39.802Z,13.34
2023-02-17T13:30:45.178Z,13.36
2023-02-17T13:31:49.229Z,13.45
2023-02-17T13:33:25.907Z,13.47
2023-02-17T13:34:35.525Z,13.50
2023-02-17T13:35:37.270Z,13.49
2023-02-17T13:36:38.799Z,13.48
2023-02-17T13:37:44.943Z,13.47
2023-02-17T13:39:01.402Z,13.48
2023-02-17T13:40:24.062Z,13.57
2023-02-17T13:41:26.215Z,13.61
2023-02-17T13:42:44.198Z,13.63
2023-02-17T13:43:46.133Z,13.69
2023-02-17T13:44:49.104Z,13.73
2023-02-17T13:45:59.967Z,13.70
2023-02-17T13:47:07.671Z,13.70
2023-02-17T13:48:15.164Z,13.70
2023-02-17T13:49:23.683Z,13.77
2023-02-17T13:50:37.180Z,13.79
2023-02-17T13:51:38.752Z,13.83
2023-02-17T13:52:43.515Z,13.85
2023-02-17T13:53:50.298Z,13.85
2023-02-17T13:54:54.116Z,13.90
2023-02-17T13:56:08.956Z,13.90
2023-02-17T13:57:23.189Z,13.90
2023-02-17T13:58:37.133Z,13.98
2023-02-17T13:59:38.949Z,14.00
2023-02-17T14:00:43.617Z,14.04
2023-02-17T14:01:46.542Z,14.08
2023-02-17T14:02:54.539Z,14.11
2023-02-17T14:03:56.410Z,14.09
2023-02-17T14:05:00.656Z,14.11
2023-02-17T14:06:03.209Z,14.06
2023-02-17T14:07:05.210Z,14.07
2023-02-17T14:08:14.128Z,14.06
2023-02-17T14:09:31.046Z,14.08
2023-02-17T14:10:33.188Z,14.09
2023-02-17T14:11:36.052Z,14.08
2023-02-17T14:12:37.745Z,14.09
2023-02-17T14:13:42.915Z,14.13
2023-02-17T14:14:44.596Z,14.15
2023-02-17T14:15:54.482Z,14.16
2023-02-17T14:17:03.241Z,14.19
2023-02-17T14:18:15.647Z,14.18
2023-02-17T14:19:19.000Z,14.21
2023-02-17T14:20:35.018Z,14.25
2023-02-17T14:21:45.156Z,14.24
2023-02-17T14:22:55.940Z,14.26
2023-02-17T14:24:04.522Z,14.23
2023-02-17T14:25:26.400Z,14.19
2023-02-17T14:26:47.591Z,14.30
2023-02-17T14:27:52.925Z,14.28
2023-02-17T14:28:59.718Z,14.30
2023-02-17T14:30:02.275Z,14.33
2023-02-17T14:31:11.134Z,14.37
2023-02-17T14:32:45.267Z,14.33
2023-02-17T14:34:02.970Z,14.29
2023-02-17T14:35:13.896Z,14.32
2023-02-17T14:36:26.288Z,14.27
2023-02-17T14:37:31.028Z,14.26